sensor_id;sensor_type;location;lat;lon;timestamp;P1;durP1;ratioP1;P2;durP2;ratioP2
59167;SDS011;70412;55.048;73.268;2024-03-17T00:02:24;28.37;;;12.13;;
59167;SDS011;70412;55.048;73.268;2024-03-17T00:05:27;28.77;;;11.98;;
59167;SDS011;70412;55.048;73.268;2024-03-17T00:08:29;31.58;;;11.23;;
59167;SDS011;70412;55.048;73.268;2024-03-17T00:11:32;21.17;;;9.23;;
59167;SDS011;70412;55.048;73.268;2024-03-17T00:14:44;23.83;;;10.29;;
59167;SDS011;70412;55.048;73.268;2024-03-17T00:17:46;27.55;;;10.38;;
59167;SDS011;70412;55.048;73.268;2024-03-17T00:20:50;25.10;;;9.88;;
59167;SDS011;70412;55.048;73.268;2024-03-17T00:23:52;26.35;;;10.40;;
59167;SDS011;70412;55.048;73.268;2024-03-17T00:26:55;26.10;;;10.68;;
59167;SDS011;70412;55.048;73.268;2024-03-17T00:29:57;23.47;;;10.17;;
59167;SDS011;70412;55.048;73.268;2024-03-17T00:33:00;27.58;;;10.25;;
59167;SDS011;70412;55.048;73.268;2024-03-17T00:36:02;30.08;;;11.27;;
59167;SDS011;70412;55.048;73.268;2024-03-17T00:39:05;34.72;;;11.77;;
59167;SDS011;70412;55.048;73.268;2024-03-17T00:42:07;32.47;;;11.70;;
59167;SDS011;70412;55.048;73.268;2024-03-17T00:45:10;35.38;;;12.50;;
59167;SDS011;70412;55.048;73.268;2024-03-17T00:48:13;30.90;;;12.73;;
59167;SDS011;70412;55.048;73.268;2024-03-17T00:51:16;37.28;;;12.68;;
59167;SDS011;70412;55.048;73.268;2024-03-17T00:54:21;30.45;;;12.00;;
59167;SDS011;70412;55.048;73.268;2024-03-17T00:57:23;39.95;;;12.57;;
59167;SDS011;70412;55.048;73.268;2024-03-17T01:00:26;31.83;;;11.60;;
59167;SDS011;70412;55.048;73.268;2024-03-17T01:03:29;31.80;;;11.82;;
59167;SDS011;70412;55.048;73.268;2024-03-17T01:06:31;33.03;;;12.02;;
59167;SDS011;70412;55.048;73.268;2024-03-17T01:09:34;29.95;;;10.65;;
59167;SDS011;70412;55.048;73.268;2024-03-17T01:12:37;34.65;;;12.95;;
59167;SDS011;70412;55.048;73.268;2024-03-17T01:15:39;28.75;;;11.45;;
59167;SDS011;70412;55.048;73.268;2024-03-17T01:18:42;32.03;;;12.05;;
59167;SDS011;70412;55.048;73.268;2024-03-17T01:21:47;29.10;;;11.35;;
59167;SDS011;70412;55.048;73.268;2024-03-17T01:24:49;31.80;;;12.05;;
59167;SDS011;70412;55.048;73.268;2024-03-17T01:27:52;33.92;;;12.48;;
59167;SDS011;70412;55.048;73.268;2024-03-17T01:31:13;31.50;;;11.93;;
59167;SDS011;70412;55.048;73.268;2024-03-17T01:34:15;34.65;;;12.48;;
59167;SDS011;70412;55.048;73.268;2024-03-17T01:37:18;36.13;;;13.60;;
59167;SDS011;70412;55.048;73.268;2024-03-17T01:40:20;33.67;;;12.50;;
59167;SDS011;70412;55.048;73.268;2024-03-17T01:43:23;28.30;;;11.50;;
59167;SDS011;70412;55.048;73.268;2024-03-17T01:46:26;31.55;;;10.98;;
59167;SDS011;70412;55.048;73.268;2024-03-17T01:49:29;27.02;;;10.85;;
59167;SDS011;70412;55.048;73.268;2024-03-17T01:52:51;31.25;;;11.40;;
59167;SDS011;70412;55.048;73.268;2024-03-17T01:55:56;26.83;;;10.03;;
59167;SDS011;70412;55.048;73.268;2024-03-17T01:59:01;25.95;;;10.30;;
59167;SDS011;70412;55.048;73.268;2024-03-17T02:02:05;33.95;;;12.80;;
59167;SDS011;70412;55.048;73.268;2024-03-17T02:05:10;26.40;;;10.50;;
59167;SDS011;70412;55.048;73.268;2024-03-17T02:08:13;31.27;;;11.57;;
59167;SDS011;70412;55.048;73.268;2024-03-17T02:11:23;22.45;;;9.02;;
59167;SDS011;70412;55.048;73.268;2024-03-17T02:14:26;24.35;;;9.93;;
59167;SDS011;70412;55.048;73.268;2024-03-17T02:17:28;30.65;;;10.48;;
59167;SDS011;70412;55.048;73.268;2024-03-17T02:20:30;28.48;;;10.32;;
59167;SDS011;70412;55.048;73.268;2024-03-17T02:23:51;21.42;;;9.65;;
59167;SDS011;70412;55.048;73.268;2024-03-17T02:26:54;39.42;;;12.30;;
59167;SDS011;70412;55.048;73.268;2024-03-17T02:29:59;31.02;;;12.98;;
59167;SDS011;70412;55.048;73.268;2024-03-17T02:33:01;29.45;;;12.27;;
59167;SDS011;70412;55.048;73.268;2024-03-17T02:36:07;25.73;;;10.40;;
59167;SDS011;70412;55.048;73.268;2024-03-17T02:39:10;30.73;;;10.40;;
59167;SDS011;70412;55.048;73.268;2024-03-17T02:45:52;35.20;;;12.15;;
59167;SDS011;70412;55.048;73.268;2024-03-17T02:48:55;33.72;;;12.07;;
59167;SDS011;70412;55.048;73.268;2024-03-17T02:51:57;32.47;;;10.80;;
59167;SDS011;70412;55.048;73.268;2024-03-17T02:55:01;38.88;;;14.23;;
59167;SDS011;70412;55.048;73.268;2024-03-17T02:58:03;34.00;;;12.68;;
59167;SDS011;70412;55.048;73.268;2024-03-17T03:01:06;48.97;;;15.80;;
59167;SDS011;70412;55.048;73.268;2024-03-17T03:04:08;35.17;;;12.80;;
59167;SDS011;70412;55.048;73.268;2024-03-17T03:07:11;33.95;;;12.52;;
59167;SDS011;70412;55.048;73.268;2024-03-17T03:10:14;36.10;;;12.43;;
59167;SDS011;70412;55.048;73.268;2024-03-17T03:13:16;38.60;;;13.90;;
59167;SDS011;70412;55.048;73.268;2024-03-17T03:16:19;36.60;;;12.52;;
59167;SDS011;70412;55.048;73.268;2024-03-17T03:19:22;51.80;;;20.10;;
59167;SDS011;70412;55.048;73.268;2024-03-17T03:22:24;24.20;;;9.18;;
59167;SDS011;70412;55.048;73.268;2024-03-17T03:25:27;25.45;;;9.65;;
59167;SDS011;70412;55.048;73.268;2024-03-17T03:28:30;35.90;;;15.10;;
59167;SDS011;70412;55.048;73.268;2024-03-17T03:31:36;28.25;;;10.63;;
59167;SDS011;70412;55.048;73.268;2024-03-17T03:34:44;38.92;;;17.05;;
59167;SDS011;70412;55.048;73.268;2024-03-17T03:37:47;27.45;;;10.25;;
59167;SDS011;70412;55.048;73.268;2024-03-17T03:40:49;24.95;;;11.27;;
59167;SDS011;70412;55.048;73.268;2024-03-17T03:43:52;30.52;;;13.73;;
59167;SDS011;70412;55.048;73.268;2024-03-17T03:46:55;44.00;;;17.20;;
59167;SDS011;70412;55.048;73.268;2024-03-17T03:50:00;45.85;;;17.58;;
59167;SDS011;70412;55.048;73.268;2024-03-17T03:53:05;32.15;;;13.38;;
59167;SDS011;70412;55.048;73.268;2024-03-17T03:56:07;28.75;;;12.00;;
59167;SDS011;70412;55.048;73.268;2024-03-17T03:59:11;37.63;;;13.85;;
59167;SDS011;70412;55.048;73.268;2024-03-17T04:02:14;44.05;;;16.48;;
59167;SDS011;70412;55.048;73.268;2024-03-17T04:05:17;34.50;;;13.30;;
59167;SDS011;70412;55.048;73.268;2024-03-17T04:08:21;28.55;;;11.65;;
59167;SDS011;70412;55.048;73.268;2024-03-17T04:11:25;41.03;;;13.95;;
59167;SDS011;70412;55.048;73.268;2024-03-17T04:14:28;26.98;;;12.25;;
59167;SDS011;70412;55.048;73.268;2024-03-17T04:17:32;34.60;;;14.40;;
59167;SDS011;70412;55.048;73.268;2024-03-17T04:20:35;26.40;;;11.23;;
59167;SDS011;70412;55.048;73.268;2024-03-17T04:23:38;42.03;;;14.27;;
59167;SDS011;70412;55.048;73.268;2024-03-17T04:26:40;49.80;;;17.38;;
59167;SDS011;70412;55.048;73.268;2024-03-17T04:29:46;57.92;;;21.00;;
59167;SDS011;70412;55.048;73.268;2024-03-17T04:32:52;26.25;;;11.48;;
59167;SDS011;70412;55.048;73.268;2024-03-17T04:35:54;51.03;;;18.15;;
59167;SDS011;70412;55.048;73.268;2024-03-17T04:38:57;48.30;;;16.73;;
59167;SDS011;70412;55.048;73.268;2024-03-17T04:42:02;51.30;;;19.10;;
59167;SDS011;70412;55.048;73.268;2024-03-17T04:45:06;241.73;;;58.90;;
59167;SDS011;70412;55.048;73.268;2024-03-17T04:48:11;28.00;;;11.15;;
59167;SDS011;70412;55.048;73.268;2024-03-17T04:51:16;28.30;;;10.10;;
59167;SDS011;70412;55.048;73.268;2024-03-17T04:54:18;33.50;;;14.25;;
59167;SDS011;70412;55.048;73.268;2024-03-17T04:57:21;25.73;;;11.73;;
59167;SDS011;70412;55.048;73.268;2024-03-17T05:00:23;20.88;;;9.68;;
59167;SDS011;70412;55.048;73.268;2024-03-17T05:03:26;19.23;;;9.10;;
59167;SDS011;70412;55.048;73.268;2024-03-17T05:06:28;28.35;;;11.02;;
59167;SDS011;70412;55.048;73.268;2024-03-17T05:09:31;27.33;;;11.02;;
59167;SDS011;70412;55.048;73.268;2024-03-17T05:12:33;27.73;;;10.82;;
59167;SDS011;70412;55.048;73.268;2024-03-17T05:15:36;26.63;;;11.38;;
59167;SDS011;70412;55.048;73.268;2024-03-17T05:18:40;23.30;;;10.20;;
59167;SDS011;70412;55.048;73.268;2024-03-17T05:21:46;23.48;;;10.82;;
59167;SDS011;70412;55.048;73.268;2024-03-17T05:24:48;30.41;;;14.40;;
59167;SDS011;70412;55.048;73.268;2024-03-17T05:27:51;26.48;;;11.85;;
59167;SDS011;70412;55.048;73.268;2024-03-17T05:30:54;21.42;;;9.32;;
59167;SDS011;70412;55.048;73.268;2024-03-17T05:33:58;17.75;;;8.82;;
59167;SDS011;70412;55.048;73.268;2024-03-17T05:37:01;19.52;;;8.43;;
59167;SDS011;70412;55.048;73.268;2024-03-17T05:40:05;24.45;;;10.02;;
59167;SDS011;70412;55.048;73.268;2024-03-17T05:43:08;22.38;;;10.90;;
59167;SDS011;70412;55.048;73.268;2024-03-17T05:46:29;20.85;;;7.15;;
59167;SDS011;70412;55.048;73.268;2024-03-17T05:49:32;20.52;;;7.78;;
59167;SDS011;70412;55.048;73.268;2024-03-17T05:52:34;21.63;;;9.82;;
59167;SDS011;70412;55.048;73.268;2024-03-17T05:55:37;23.70;;;11.43;;
59167;SDS011;70412;55.048;73.268;2024-03-17T05:58:41;21.30;;;9.30;;
59167;SDS011;70412;55.048;73.268;2024-03-17T06:01:46;23.70;;;12.57;;
59167;SDS011;70412;55.048;73.268;2024-03-17T06:04:48;21.86;;;9.49;;
59167;SDS011;70412;55.048;73.268;2024-03-17T06:07:51;22.00;;;9.63;;
59167;SDS011;70412;55.048;73.268;2024-03-17T06:10:53;19.30;;;8.85;;
59167;SDS011;70412;55.048;73.268;2024-03-17T06:13:58;18.08;;;7.20;;
59167;SDS011;70412;55.048;73.268;2024-03-17T06:17:03;20.17;;;8.73;;
59167;SDS011;70412;55.048;73.268;2024-03-17T06:20:06;17.52;;;7.80;;
59167;SDS011;70412;55.048;73.268;2024-03-17T06:23:13;18.63;;;8.13;;
59167;SDS011;70412;55.048;73.268;2024-03-17T06:26:17;17.95;;;9.10;;
59167;SDS011;70412;55.048;73.268;2024-03-17T06:29:20;32.53;;;14.50;;
59167;SDS011;70412;55.048;73.268;2024-03-17T06:32:22;23.38;;;10.23;;
59167;SDS011;70412;55.048;73.268;2024-03-17T06:35:25;23.13;;;10.63;;
59167;SDS011;70412;55.048;73.268;2024-03-17T06:38:28;21.40;;;9.05;;
59167;SDS011;70412;55.048;73.268;2024-03-17T06:41:31;22.23;;;9.07;;
59167;SDS011;70412;55.048;73.268;2024-03-17T06:44:33;26.63;;;9.45;;
59167;SDS011;70412;55.048;73.268;2024-03-17T06:47:37;28.80;;;9.95;;
59167;SDS011;70412;55.048;73.268;2024-03-17T06:50:41;19.77;;;8.73;;
59167;SDS011;70412;55.048;73.268;2024-03-17T06:53:43;20.15;;;8.43;;
59167;SDS011;70412;55.048;73.268;2024-03-17T06:56:46;23.55;;;9.00;;
59167;SDS011;70412;55.048;73.268;2024-03-17T06:59:48;31.33;;;9.66;;
59167;SDS011;70412;55.048;73.268;2024-03-17T07:02:51;25.13;;;10.73;;
59167;SDS011;70412;55.048;73.268;2024-03-17T07:05:54;26.35;;;10.95;;
59167;SDS011;70412;55.048;73.268;2024-03-17T07:09:03;20.48;;;9.38;;
59167;SDS011;70412;55.048;73.268;2024-03-17T07:12:07;37.10;;;18.38;;
59167;SDS011;70412;55.048;73.268;2024-03-17T07:15:28;52.20;;;25.30;;
59167;SDS011;70412;55.048;73.268;2024-03-17T07:18:31;32.45;;;14.05;;
59167;SDS011;70412;55.048;73.268;2024-03-17T07:21:34;68.38;;;33.67;;
59167;SDS011;70412;55.048;73.268;2024-03-17T07:24:44;28.46;;;14.50;;
59167;SDS011;70412;55.048;73.268;2024-03-17T07:27:47;25.95;;;13.93;;
59167;SDS011;70412;55.048;73.268;2024-03-17T07:30:50;20.73;;;10.07;;
59167;SDS011;70412;55.048;73.268;2024-03-17T07:33:54;23.38;;;10.80;;
59167;SDS011;70412;55.048;73.268;2024-03-17T07:36:57;172.82;;;76.63;;
59167;SDS011;70412;55.048;73.268;2024-03-17T07:40:03;31.05;;;15.68;;
59167;SDS011;70412;55.048;73.268;2024-03-17T07:43:08;60.42;;;26.10;;
59167;SDS011;70412;55.048;73.268;2024-03-17T07:46:11;18.73;;;8.68;;
59167;SDS011;70412;55.048;73.268;2024-03-17T07:49:14;24.10;;;9.60;;
59167;SDS011;70412;55.048;73.268;2024-03-17T07:52:18;36.08;;;19.10;;
59167;SDS011;70412;55.048;73.268;2024-03-17T07:55:20;29.80;;;13.47;;
59167;SDS011;70412;55.048;73.268;2024-03-17T07:58:24;39.75;;;27.27;;
59167;SDS011;70412;55.048;73.268;2024-03-17T08:01:27;33.03;;;18.73;;
59167;SDS011;70412;55.048;73.268;2024-03-17T08:04:30;28.83;;;12.27;;
59167;SDS011;70412;55.048;73.268;2024-03-17T08:07:32;35.03;;;14.48;;
59167;SDS011;70412;55.048;73.268;2024-03-17T08:10:37;43.35;;;15.80;;
59167;SDS011;70412;55.048;73.268;2024-03-17T08:13:40;35.13;;;16.98;;
59167;SDS011;70412;55.048;73.268;2024-03-17T08:16:43;27.65;;;12.18;;
59167;SDS011;70412;55.048;73.268;2024-03-17T08:19:45;16.20;;;7.70;;
59167;SDS011;70412;55.048;73.268;2024-03-17T08:22:49;14.02;;;6.03;;
59167;SDS011;70412;55.048;73.268;2024-03-17T08:25:52;16.77;;;8.18;;
59167;SDS011;70412;55.048;73.268;2024-03-17T08:32:00;15.52;;;7.95;;
59167;SDS011;70412;55.048;73.268;2024-03-17T08:35:03;14.88;;;6.88;;
59167;SDS011;70412;55.048;73.268;2024-03-17T08:38:06;11.63;;;4.80;;
59167;SDS011;70412;55.048;73.268;2024-03-17T08:41:11;13.60;;;6.23;;
59167;SDS011;70412;55.048;73.268;2024-03-17T08:44:15;11.27;;;5.07;;
59167;SDS011;70412;55.048;73.268;2024-03-17T08:47:17;8.83;;;4.27;;
59167;SDS011;70412;55.048;73.268;2024-03-17T08:50:20;12.20;;;6.47;;
59167;SDS011;70412;55.048;73.268;2024-03-17T08:53:22;17.10;;;7.90;;
59167;SDS011;70412;55.048;73.268;2024-03-17T08:56:25;17.27;;;6.93;;
59167;SDS011;70412;55.048;73.268;2024-03-17T08:59:28;20.33;;;8.13;;
59167;SDS011;70412;55.048;73.268;2024-03-17T09:02:30;15.18;;;6.60;;
59167;SDS011;70412;55.048;73.268;2024-03-17T09:05:33;9.27;;;4.80;;
59167;SDS011;70412;55.048;73.268;2024-03-17T09:08:36;18.77;;;8.32;;
59167;SDS011;70412;55.048;73.268;2024-03-17T09:11:38;14.60;;;6.93;;
59167;SDS011;70412;55.048;73.268;2024-03-17T09:14:46;17.55;;;6.47;;
59167;SDS011;70412;55.048;73.268;2024-03-17T09:17:49;12.23;;;4.95;;
59167;SDS011;70412;55.048;73.268;2024-03-17T09:20:59;9.85;;;4.70;;
59167;SDS011;70412;55.048;73.268;2024-03-17T09:24:08;14.38;;;5.70;;
59167;SDS011;70412;55.048;73.268;2024-03-17T09:27:10;10.65;;;5.20;;
59167;SDS011;70412;55.048;73.268;2024-03-17T09:30:13;11.85;;;6.32;;
59167;SDS011;70412;55.048;73.268;2024-03-17T09:33:16;14.57;;;5.00;;
59167;SDS011;70412;55.048;73.268;2024-03-17T09:39:46;10.44;;;4.78;;
59167;SDS011;70412;55.048;73.268;2024-03-17T09:42:50;9.05;;;4.28;;
59167;SDS011;70412;55.048;73.268;2024-03-17T09:45:52;12.20;;;5.78;;
59167;SDS011;70412;55.048;73.268;2024-03-17T09:48:59;12.85;;;5.65;;
59167;SDS011;70412;55.048;73.268;2024-03-17T09:52:01;8.55;;;4.15;;
59167;SDS011;70412;55.048;73.268;2024-03-17T09:55:13;13.05;;;5.85;;
59167;SDS011;70412;55.048;73.268;2024-03-17T09:58:18;10.60;;;4.93;;
59167;SDS011;70412;55.048;73.268;2024-03-17T10:01:21;12.23;;;4.53;;
59167;SDS011;70412;55.048;73.268;2024-03-17T10:04:33;14.63;;;6.70;;
59167;SDS011;70412;55.048;73.268;2024-03-17T10:07:38;7.13;;;2.95;;
59167;SDS011;70412;55.048;73.268;2024-03-17T10:10:41;16.27;;;9.20;;
59167;SDS011;70412;55.048;73.268;2024-03-17T10:13:43;9.52;;;4.20;;
59167;SDS011;70412;55.048;73.268;2024-03-17T10:16:46;14.48;;;4.68;;
59167;SDS011;70412;55.048;73.268;2024-03-17T10:19:52;9.87;;;4.50;;
59167;SDS011;70412;55.048;73.268;2024-03-17T10:23:01;8.65;;;3.35;;
59167;SDS011;70412;55.048;73.268;2024-03-17T10:26:13;9.15;;;4.70;;
59167;SDS011;70412;55.048;73.268;2024-03-17T10:29:27;15.80;;;4.47;;
59167;SDS011;70412;55.048;73.268;2024-03-17T10:32:32;8.30;;;3.88;;
59167;SDS011;70412;55.048;73.268;2024-03-17T10:35:35;11.15;;;4.13;;
59167;SDS011;70412;55.048;73.268;2024-03-17T10:38:51;9.63;;;3.53;;
59167;SDS011;70412;55.048;73.268;2024-03-17T10:42:02;7.53;;;3.65;;
59167;SDS011;70412;55.048;73.268;2024-03-17T10:45:06;7.60;;;3.80;;
59167;SDS011;70412;55.048;73.268;2024-03-17T10:48:11;11.52;;;4.60;;
59167;SDS011;70412;55.048;73.268;2024-03-17T10:51:20;8.48;;;3.83;;
59167;SDS011;70412;55.048;73.268;2024-03-17T10:54:23;9.75;;;4.05;;
59167;SDS011;70412;55.048;73.268;2024-03-17T11:00:38;9.60;;;4.10;;
59167;SDS011;70412;55.048;73.268;2024-03-17T11:03:45;8.43;;;3.92;;
59167;SDS011;70412;55.048;73.268;2024-03-17T11:06:48;9.95;;;4.10;;
59167;SDS011;70412;55.048;73.268;2024-03-17T11:09:53;12.00;;;4.87;;
59167;SDS011;70412;55.048;73.268;2024-03-17T11:12:58;8.80;;;4.78;;
59167;SDS011;70412;55.048;73.268;2024-03-17T11:16:01;15.07;;;5.97;;
59167;SDS011;70412;55.048;73.268;2024-03-17T11:19:08;30.75;;;9.35;;
59167;SDS011;70412;55.048;73.268;2024-03-17T11:25:51;22.13;;;6.80;;
59167;SDS011;70412;55.048;73.268;2024-03-17T11:28:55;18.90;;;6.78;;
59167;SDS011;70412;55.048;73.268;2024-03-17T11:31:59;11.65;;;3.97;;
59167;SDS011;70412;55.048;73.268;2024-03-17T11:35:34;8.63;;;4.72;;
59167;SDS011;70412;55.048;73.268;2024-03-17T11:42:06;9.18;;;4.10;;
59167;SDS011;70412;55.048;73.268;2024-03-17T11:45:16;8.88;;;3.60;;
59167;SDS011;70412;55.048;73.268;2024-03-17T11:48:22;11.07;;;5.10;;
59167;SDS011;70412;55.048;73.268;2024-03-17T11:51:25;13.10;;;4.85;;
59167;SDS011;70412;55.048;73.268;2024-03-17T11:54:32;10.85;;;3.63;;
59167;SDS011;70412;55.048;73.268;2024-03-17T11:57:37;8.18;;;3.92;;
59167;SDS011;70412;55.048;73.268;2024-03-17T12:00:40;9.00;;;4.10;;
59167;SDS011;70412;55.048;73.268;2024-03-17T12:03:42;11.10;;;5.65;;
59167;SDS011;70412;55.048;73.268;2024-03-17T12:06:49;15.02;;;5.32;;
59167;SDS011;70412;55.048;73.268;2024-03-17T12:09:52;12.53;;;5.37;;
59167;SDS011;70412;55.048;73.268;2024-03-17T12:12:55;11.32;;;4.95;;
59167;SDS011;70412;55.048;73.268;2024-03-17T12:16:10;12.57;;;4.78;;
59167;SDS011;70412;55.048;73.268;2024-03-17T12:19:15;14.25;;;6.88;;
59167;SDS011;70412;55.048;73.268;2024-03-17T12:22:19;9.50;;;4.13;;
59167;SDS011;70412;55.048;73.268;2024-03-17T12:25:27;12.18;;;6.07;;
59167;SDS011;70412;55.048;73.268;2024-03-17T12:28:31;12.90;;;5.55;;
59167;SDS011;70412;55.048;73.268;2024-03-17T12:31:33;20.50;;;9.18;;
59167;SDS011;70412;55.048;73.268;2024-03-17T12:34:44;18.66;;;6.49;;
59167;SDS011;70412;55.048;73.268;2024-03-17T12:37:48;17.33;;;7.43;;
59167;SDS011;70412;55.048;73.268;2024-03-17T12:41:03;15.23;;;7.03;;
59167;SDS011;70412;55.048;73.268;2024-03-17T12:44:19;39.03;;;18.00;;
59167;SDS011;70412;55.048;73.268;2024-03-17T12:47:25;14.27;;;5.40;;
59167;SDS011;70412;55.048;73.268;2024-03-17T12:50:29;14.32;;;7.00;;
59167;SDS011;70412;55.048;73.268;2024-03-17T12:53:50;17.08;;;6.35;;
59167;SDS011;70412;55.048;73.268;2024-03-17T12:57:24;11.75;;;6.03;;
59167;SDS011;70412;55.048;73.268;2024-03-17T13:00:45;17.35;;;7.93;;
59167;SDS011;70412;55.048;73.268;2024-03-17T13:04:06;15.25;;;6.97;;
59167;SDS011;70412;55.048;73.268;2024-03-17T13:07:29;23.40;;;9.85;;
59167;SDS011;70412;55.048;73.268;2024-03-17T13:10:32;46.83;;;18.50;;
59167;SDS011;70412;55.048;73.268;2024-03-17T13:13:37;36.22;;;14.50;;
59167;SDS011;70412;55.048;73.268;2024-03-17T13:16:40;30.20;;;11.20;;
59167;SDS011;70412;55.048;73.268;2024-03-17T13:20:02;25.63;;;9.73;;
59167;SDS011;70412;55.048;73.268;2024-03-17T13:23:20;20.83;;;8.38;;
59167;SDS011;70412;55.048;73.268;2024-03-17T13:26:34;21.98;;;8.10;;
59167;SDS011;70412;55.048;73.268;2024-03-17T13:29:55;24.20;;;9.98;;
59167;SDS011;70412;55.048;73.268;2024-03-17T13:32:57;18.42;;;8.43;;
59167;SDS011;70412;55.048;73.268;2024-03-17T13:36:00;15.20;;;7.65;;
59167;SDS011;70412;55.048;73.268;2024-03-17T13:39:28;23.48;;;8.43;;
59167;SDS011;70412;55.048;73.268;2024-03-17T13:42:35;17.83;;;6.68;;
59167;SDS011;70412;55.048;73.268;2024-03-17T13:45:41;17.20;;;5.95;;
59167;SDS011;70412;55.048;73.268;2024-03-17T13:48:49;15.23;;;5.15;;
59167;SDS011;70412;55.048;73.268;2024-03-17T13:51:59;14.73;;;4.78;;
59167;SDS011;70412;55.048;73.268;2024-03-17T13:55:01;46.55;;;14.30;;
59167;SDS011;70412;55.048;73.268;2024-03-17T13:58:06;11.90;;;4.93;;
59167;SDS011;70412;55.048;73.268;2024-03-17T14:01:08;16.60;;;6.82;;
59167;SDS011;70412;55.048;73.268;2024-03-17T14:04:12;28.77;;;10.95;;
59167;SDS011;70412;55.048;73.268;2024-03-17T14:07:18;31.23;;;10.02;;
59167;SDS011;70412;55.048;73.268;2024-03-17T14:10:21;26.25;;;9.30;;
59167;SDS011;70412;55.048;73.268;2024-03-17T14:13:25;28.17;;;9.30;;
59167;SDS011;70412;55.048;73.268;2024-03-17T14:16:29;33.47;;;11.80;;
59167;SDS011;70412;55.048;73.268;2024-03-17T14:19:44;15.98;;;7.29;;
59167;SDS011;70412;55.048;73.268;2024-03-17T14:22:47;19.65;;;7.75;;
59167;SDS011;70412;55.048;73.268;2024-03-17T14:25:55;20.13;;;7.97;;
59167;SDS011;70412;55.048;73.268;2024-03-17T14:29:16;16.13;;;5.78;;
59167;SDS011;70412;55.048;73.268;2024-03-17T14:32:19;17.67;;;6.85;;
59167;SDS011;70412;55.048;73.268;2024-03-17T14:38:42;16.33;;;6.70;;
59167;SDS011;70412;55.048;73.268;2024-03-17T14:41:45;16.95;;;6.97;;
59167;SDS011;70412;55.048;73.268;2024-03-17T14:44:47;15.17;;;6.07;;
59167;SDS011;70412;55.048;73.268;2024-03-17T14:47:50;34.45;;;15.90;;
59167;SDS011;70412;55.048;73.268;2024-03-17T14:50:55;34.45;;;13.32;;
59167;SDS011;70412;55.048;73.268;2024-03-17T14:53:58;35.13;;;15.48;;
59167;SDS011;70412;55.048;73.268;2024-03-17T14:57:04;24.15;;;10.05;;
59167;SDS011;70412;55.048;73.268;2024-03-17T15:00:08;31.10;;;12.90;;
59167;SDS011;70412;55.048;73.268;2024-03-17T15:03:18;41.78;;;16.42;;
59167;SDS011;70412;55.048;73.268;2024-03-17T15:06:21;27.02;;;9.50;;
59167;SDS011;70412;55.048;73.268;2024-03-17T15:13:06;31.38;;;13.40;;
59167;SDS011;70412;55.048;73.268;2024-03-17T15:16:08;26.50;;;11.75;;
59167;SDS011;70412;55.048;73.268;2024-03-17T15:19:11;33.10;;;13.93;;
59167;SDS011;70412;55.048;73.268;2024-03-17T15:22:13;34.97;;;13.60;;
59167;SDS011;70412;55.048;73.268;2024-03-17T15:25:16;22.58;;;7.75;;
59167;SDS011;70412;55.048;73.268;2024-03-17T15:28:19;20.08;;;8.68;;
59167;SDS011;70412;55.048;73.268;2024-03-17T15:31:22;18.15;;;8.20;;
59167;SDS011;70412;55.048;73.268;2024-03-17T15:34:24;23.77;;;8.32;;
59167;SDS011;70412;55.048;73.268;2024-03-17T15:37:26;20.33;;;8.02;;
59167;SDS011;70412;55.048;73.268;2024-03-17T15:40:29;29.92;;;9.35;;
59167;SDS011;70412;55.048;73.268;2024-03-17T15:43:35;65.40;;;20.00;;
59167;SDS011;70412;55.048;73.268;2024-03-17T15:46:40;44.95;;;14.93;;
59167;SDS011;70412;55.048;73.268;2024-03-17T15:49:44;53.88;;;15.73;;
59167;SDS011;70412;55.048;73.268;2024-03-17T15:52:47;43.90;;;13.95;;
59167;SDS011;70412;55.048;73.268;2024-03-17T15:56:08;62.42;;;18.10;;
59167;SDS011;70412;55.048;73.268;2024-03-17T15:59:29;62.38;;;19.00;;
59167;SDS011;70412;55.048;73.268;2024-03-17T16:02:32;98.60;;;27.15;;
59167;SDS011;70412;55.048;73.268;2024-03-17T16:05:34;60.80;;;17.75;;
59167;SDS011;70412;55.048;73.268;2024-03-17T16:08:42;52.90;;;17.70;;
59167;SDS011;70412;55.048;73.268;2024-03-17T16:11:47;77.55;;;26.15;;
59167;SDS011;70412;55.048;73.268;2024-03-17T16:14:49;83.55;;;27.20;;
59167;SDS011;70412;55.048;73.268;2024-03-17T16:17:54;44.38;;;14.55;;
59167;SDS011;70412;55.048;73.268;2024-03-17T16:20:57;24.88;;;9.75;;
59167;SDS011;70412;55.048;73.268;2024-03-17T16:24:08;49.60;;;16.67;;
59167;SDS011;70412;55.048;73.268;2024-03-17T16:27:12;32.38;;;11.85;;
59167;SDS011;70412;55.048;73.268;2024-03-17T16:30:15;85.30;;;26.45;;
59167;SDS011;70412;55.048;73.268;2024-03-17T16:33:17;63.75;;;20.23;;
59167;SDS011;70412;55.048;73.268;2024-03-17T16:39:44;51.53;;;14.70;;
59167;SDS011;70412;55.048;73.268;2024-03-17T16:42:49;115.70;;;34.80;;
59167;SDS011;70412;55.048;73.268;2024-03-17T16:46:00;132.82;;;36.35;;
59167;SDS011;70412;55.048;73.268;2024-03-17T16:49:26;81.25;;;22.40;;
59167;SDS011;70412;55.048;73.268;2024-03-17T16:52:29;62.15;;;17.63;;
59167;SDS011;70412;55.048;73.268;2024-03-17T16:55:31;45.92;;;14.05;;
59167;SDS011;70412;55.048;73.268;2024-03-17T16:58:34;74.03;;;18.38;;
59167;SDS011;70412;55.048;73.268;2024-03-17T17:01:37;116.20;;;28.05;;
59167;SDS011;70412;55.048;73.268;2024-03-17T17:04:44;98.55;;;26.92;;
59167;SDS011;70412;55.048;73.268;2024-03-17T17:07:48;173.52;;;40.60;;
59167;SDS011;70412;55.048;73.268;2024-03-17T17:10:50;182.90;;;45.10;;
59167;SDS011;70412;55.048;73.268;2024-03-17T17:13:53;252.82;;;60.85;;
59167;SDS011;70412;55.048;73.268;2024-03-17T17:16:57;210.02;;;50.92;;
59167;SDS011;70412;55.048;73.268;2024-03-17T17:20:01;126.15;;;31.15;;
59167;SDS011;70412;55.048;73.268;2024-03-17T17:23:04;189.57;;;39.85;;
59167;SDS011;70412;55.048;73.268;2024-03-17T17:26:07;161.43;;;38.80;;
59167;SDS011;70412;55.048;73.268;2024-03-17T17:29:10;73.78;;;19.67;;
59167;SDS011;70412;55.048;73.268;2024-03-17T17:32:12;158.02;;;35.95;;
59167;SDS011;70412;55.048;73.268;2024-03-17T17:35:17;149.68;;;37.03;;
59167;SDS011;70412;55.048;73.268;2024-03-17T17:38:19;105.60;;;25.85;;
59167;SDS011;70412;55.048;73.268;2024-03-17T17:41:22;81.20;;;20.80;;
59167;SDS011;70412;55.048;73.268;2024-03-17T17:44:26;112.13;;;27.98;;
59167;SDS011;70412;55.048;73.268;2024-03-17T17:47:28;129.25;;;30.70;;
59167;SDS011;70412;55.048;73.268;2024-03-17T17:50:31;137.60;;;33.95;;
59167;SDS011;70412;55.048;73.268;2024-03-17T17:53:34;88.07;;;19.83;;
59167;SDS011;70412;55.048;73.268;2024-03-17T17:56:37;101.15;;;22.65;;
59167;SDS011;70412;55.048;73.268;2024-03-17T17:59:44;100.95;;;23.73;;
59167;SDS011;70412;55.048;73.268;2024-03-17T18:02:46;102.60;;;21.98;;
59167;SDS011;70412;55.048;73.268;2024-03-17T18:05:49;81.82;;;16.73;;
59167;SDS011;70412;55.048;73.268;2024-03-17T18:08:51;40.50;;;11.88;;
59167;SDS011;70412;55.048;73.268;2024-03-17T18:12:17;65.55;;;19.02;;
59167;SDS011;70412;55.048;73.268;2024-03-17T18:15:19;88.93;;;21.30;;
59167;SDS011;70412;55.048;73.268;2024-03-17T18:18:26;88.03;;;21.23;;
59167;SDS011;70412;55.048;73.268;2024-03-17T18:21:30;48.10;;;14.05;;
59167;SDS011;70412;55.048;73.268;2024-03-17T18:24:33;41.67;;;12.82;;